createdAt,value
2016-11-24T00:00:02.344Z,5.8
2016-11-24T00:05:02.689Z,5.8
2016-11-24T00:10:03.052Z,5.79
2016-11-24T00:15:02.400Z,5.8
2016-11-24T00:20:02.864Z,5.8
2016-11-24T00:25:02.236Z,5.77
2016-11-24T00:30:02.561Z,5.74
2016-11-24T00:35:02.893Z,5.72
2016-11-24T00:40:02.242Z,5.68
2016-11-24T00:45:02.623Z,5.61
2016-11-24T00:50:02.970Z,5.57
2016-11-24T00:55:02.326Z,5.51
2016-11-24T01:00:02.684Z,5.46
2016-11-24T01:05:03.028Z,5.42
2016-11-24T01:10:02.372Z,5.37
2016-11-24T01:15:02.691Z,5.32
2016-11-24T01:20:03.110Z,5.28
2016-11-24T01:25:02.453Z,5.26
2016-11-24T01:30:02.798Z,5.25
2016-11-24T01:35:03.135Z,5.23
2016-11-24T01:40:02.480Z,5.2
2016-11-24T01:45:02.816Z,5.16
2016-11-24T01:50:02.212Z,5.13
2016-11-24T01:55:02.557Z,5.1
2016-11-24T02:00:02.891Z,5.08
2016-11-24T02:05:02.275Z,5.07
2016-11-24T02:10:02.591Z,5.05
2016-11-24T02:15:02.932Z,5.02
2016-11-24T02:20:02.351Z,5.02
2016-11-24T02:25:02.683Z,4.98
2016-11-24T02:30:03.040Z,4.94
2016-11-24T02:35:02.377Z,4.89
2016-11-24T02:40:02.712Z,4.87
2016-11-24T02:45:03.046Z,4.88
2016-11-24T02:50:02.364Z,4.89
2016-11-24T02:55:02.683Z,4.9
2016-11-24T03:00:03.014Z,4.91
2016-11-24T03:05:02.354Z,4.89
2016-11-24T03:10:02.757Z,4.87
2016-11-24T03:15:03.138Z,4.86
2016-11-24T03:20:02.578Z,4.84
2016-11-24T03:25:02.948Z,4.82
2016-11-24T03:30:02.340Z,4.82
2016-11-24T03:35:02.695Z,4.8
2016-11-24T03:40:03.013Z,4.79
2016-11-24T03:45:02.351Z,4.75
2016-11-24T03:50:02.692Z,4.74
2016-11-24T03:55:03.037Z,4.75
2016-11-24T04:00:02.370Z,4.77
2016-11-24T04:05:02.956Z,4.78
2016-11-24T04:10:02.274Z,4.77
2016-11-24T04:15:02.599Z,4.82
2016-11-24T04:20:03.028Z,4.93
2016-11-24T04:25:02.368Z,5.02
2016-11-24T04:30:02.718Z,5.08
2016-11-24T04:35:03.039Z,5.19
2016-11-24T04:40:02.372Z,5.27
2016-11-24T04:45:02.742Z,5.32
2016-11-24T04:50:03.136Z,5.35
2016-11-24T04:55:02.505Z,5.4
2016-11-24T05:00:02.861Z,5.46
2016-11-24T05:05:02.253Z,5.49
2016-11-24T05:10:02.608Z,5.55
2016-11-24T05:15:02.993Z,5.59
2016-11-24T05:20:02.507Z,5.65
2016-11-24T05:25:03.037Z,5.68
2016-11-24T05:30:02.401Z,5.75
2016-11-24T05:35:02.741Z,5.82
2016-11-24T05:40:03.022Z,5.85
2016-11-24T05:45:02.328Z,5.86
2016-11-24T05:50:02.719Z,5.89
2016-11-24T05:55:03.083Z,5.9
2016-11-24T06:00:02.433Z,5.9
2016-11-24T06:05:02.820Z,5.91
2016-11-24T06:10:02.188Z,5.91
2016-11-24T06:15:02.558Z,5.93
2016-11-24T06:20:02.968Z,5.94
2016-11-24T06:25:02.322Z,5.94
2016-11-24T06:30:02.666Z,5.95
2016-11-24T06:35:03.035Z,5.96
2016-11-24T06:40:02.383Z,5.98
2016-11-24T06:45:02.712Z,5.99
2016-11-24T06:50:03.079Z,5.99
2016-11-24T06:55:02.420Z,5.99
2016-11-24T07:00:02.764Z,6.01
2016-11-24T07:05:03.112Z,6.01
2016-11-24T07:10:02.455Z,6.04
2016-11-24T07:15:02.772Z,6.02
2016-11-24T07:20:02.227Z,5.99
2016-11-24T07:25:02.573Z,5.96
2016-11-24T07:30:02.921Z,5.96
2016-11-24T07:35:02.301Z,5.92
2016-11-24T07:40:02.653Z,5.89
2016-11-24T07:45:02.989Z,5.84
2016-11-24T07:50:02.384Z,5.8
2016-11-24T07:55:02.720Z,5.78
2016-11-24T08:00:03.071Z,5.77
2016-11-24T08:05:02.421Z,5.76
2016-11-24T08:10:02.800Z,5.77
2016-11-24T08:15:03.160Z,5.76
2016-11-24T08:20:02.633Z,5.8
2016-11-24T08:25:02.993Z,5.84
2016-11-24T08:30:02.326Z,5.87
2016-11-24T08:35:02.649Z,5.91
2016-11-24T08:40:03.020Z,5.94
2016-11-24T08:45:02.369Z,5.95
2016-11-24T08:50:02.720Z,5.96
2016-11-24T08:55:03.094Z,5.98
2016-11-24T09:00:02.417Z,6.01
2016-11-24T09:05:02.737Z,6.05
2016-11-24T09:10:03.066Z,6.1
2016-11-24T09:15:02.417Z,6.09
2016-11-24T09:20:02.842Z,6.13
2016-11-24T09:25:02.207Z,6.16
2016-11-24T09:30:02.538Z,6.2
2016-11-24T09:35:02.845Z,6.24
2016-11-24T09:40:02.208Z,6.25
2016-11-24T09:45:02.535Z,6.27
2016-11-24T09:50:02.905Z,6.28
2016-11-24T09:55:02.250Z,6.28
2016-11-24T10:00:02.595Z,6.29
2016-11-24T10:05:02.917Z,6.29
2016-11-24T10:10:02.305Z,6.34
2016-11-24T10:15:02.604Z,6.38
2016-11-24T10:20:03.011Z,6.48
2016-11-24T10:25:02.341Z,6.53
2016-11-24T10:30:02.678Z,6.57
2016-11-24T10:35:03.041Z,6.6
2016-11-24T10:40:02.380Z,6.6
2016-11-24T10:45:02.722Z,6.61
2016-11-24T10:50:03.044Z,6.65
2016-11-24T10:55:02.378Z,6.65
2016-11-24T11:00:02.701Z,6.68
2016-11-24T11:05:03.042Z,6.7
2016-11-24T11:10:02.375Z,6.78
2016-11-24T11:15:02.697Z,6.85
2016-11-24T11:20:03.103Z,6.91
2016-11-24T11:25:02.439Z,7
2016-11-24T11:30:02.801Z,7.11
2016-11-24T11:35:02.140Z,7.3
2016-11-24T11:40:02.489Z,7.35
2016-11-24T11:45:02.850Z,7.42
2016-11-24T11:50:02.237Z,7.43
2016-11-24T11:55:02.588Z,7.46
2016-11-24T12:00:02.944Z,7.52
2016-11-24T12:05:02.289Z,7.63
